Time;durP1;ratioP1;P1;durP2;ratioP2;P2;SDS_P1;SDS_P2;PMS_P1;PMS_P2;Temp;Humidity;BMP_temperature;BMP_pressure;BME280_temperature;BME280_humidity;BME280_pressure;Samples;Min_cycle;Max_cycle;Signal;HPM_P1;HPM_P2
2021/12/15 00:01:20;;;;;;;0.10;0.10;;;7.40;99.90;;;;;;5045726;28;21042;-68
2021/12/15 00:03:47;;;;;;;0.10;0.10;;;7.40;99.90;;;;;;5044931;28;20660;-68
2021/12/15 00:06:18;;;;;;;0.07;0.07;;;7.50;99.90;;;;;;5049029;28;21241;-68
2021/12/15 00:08:49;;;;;;;0.10;0.10;;;7.50;99.90;;;;;;5045710;28;20629;-69
2021/12/15 00:11:16;;;;;;;0.10;0.10;;;7.50;99.90;;;;;;5048219;28;20657;-68
2021/12/15 00:13:45;;;;;;;0.10;0.10;;;7.20;99.90;;;;;;5048862;28;20744;-68
2021/12/15 00:16:14;;;;;;;0.10;0.10;;;7.20;99.90;;;;;;5051835;28;20624;-68
2021/12/15 00:18:44;;;;;;;0.10;0.10;;;7.10;99.90;;;;;;5033678;28;21074;-69
2021/12/15 00:21:13;;;;;;;0.10;0.10;;;7.40;99.90;;;;;;5051766;28;20609;-69
2021/12/15 00:23:43;;;;;;;0.10;0.10;;;7.30;99.90;;;;;;5047112;28;20636;-68
2021/12/15 00:26:10;;;;;;;0.10;0.10;;;7.40;99.90;;;;;;5047186;28;20628;-69
2021/12/15 00:28:38;;;;;;;0.10;0.10;;;7.40;99.90;;;;;;5046344;28;20632;-69
2021/12/15 00:31:05;;;;;;;0.10;0.10;;;7.30;99.90;;;;;;5045452;28;20622;-69
2021/12/15 00:33:32;;;;;;;0.10;0.10;;;7.40;99.90;;;;;;5047095;28;20649;-69
2021/12/15 00:36:00;;;;;;;0.10;0.10;;;7.50;99.90;;;;;;5047000;28;20618;-69
2021/12/15 00:38:28;;;;;;;0.10;0.10;;;7.70;99.90;;;;;;5048967;28;20620;-69
2021/12/15 00:40:57;;;;;;;0.10;0.10;;;7.80;99.90;;;;;;5044463;28;20625;-69
2021/12/15 00:43:24;;;;;;;0.10;0.10;;;;;;;;;;5051533;28;20648;-69
2021/12/15 00:45:51;;;;;;;0.10;0.10;;;7.50;99.90;;;;;;5049219;28;20727;-68
2021/12/15 00:48:19;;;;;;;0.10;0.10;;;7.50;99.90;;;;;;5046336;28;20610;-67
2021/12/15 00:50:47;;;;;;;0.10;0.10;;;7.50;99.90;;;;;;5051316;28;20601;-68
2021/12/15 00:53:15;;;;;;;0.03;0.03;;;7.50;99.90;;;;;;5047350;28;21282;-69
2021/12/15 00:55:44;;;;;;;0.10;0.10;;;7.50;99.90;;;;;;5050279;28;20719;-69
2021/12/15 00:58:14;;;;;;;0.10;0.10;;;7.50;99.90;;;;;;5050756;28;20613;-68
2021/12/15 01:00:47;;;;;;;0.10;0.10;;;7.50;99.90;;;;;;5050205;28;20653;-68
2021/12/15 01:03:15;;;;;;;0.10;0.10;;;7.50;99.90;;;;;;5051111;28;20643;-68
2021/12/15 01:05:47;;;;;;;0.10;0.10;;;7.50;99.90;;;;;;5048121;28;20622;-68
2021/12/15 01:08:19;;;;;;;0.10;0.10;;;7.50;99.90;;;;;;5050096;28;20679;-68
2021/12/15 01:11:00;;;;;;;0.10;0.10;;;7.50;99.90;;;;;;5049483;28;20652;-68
2021/12/15 01:21:50;;;;;;;0.10;0.10;;;7.60;99.90;;;;;;5034031;28;20653;-68
2021/12/15 01:24:17;;;;;;;0.10;0.10;;;7.50;99.90;;;;;;5046039;28;20628;-68
2021/12/15 01:26:45;;;;;;;0.10;0.10;;;7.50;99.90;;;;;;5066627;28;20628;-69
2021/12/15 01:29:13;;;;;;;0.00;0.00;;;7.60;99.90;;;;;;5045340;28;20630;-69
2021/12/15 01:31:40;;;;;;;0.10;0.10;;;7.60;99.90;;;;;;5047462;28;20703;-69
2021/12/15 01:34:07;;;;;;;0.10;0.10;;;7.60;99.90;;;;;;5042882;28;20742;-69
2021/12/15 01:36:34;;;;;;;0.10;0.10;;;7.70;99.90;;;;;;5046895;28;20663;-68
2021/12/15 01:39:02;;;;;;;0.10;0.10;;;7.50;99.90;;;;;;5046723;28;20628;-68
2021/12/15 01:41:28;;;;;;;0.10;0.10;;;7.70;99.90;;;;;;5051410;28;21117;-69
2021/12/15 01:46:55;;;;;;;0.10;0.10;;;7.80;99.90;;;;;;5054720;28;20835;-68
2021/12/15 01:49:27;;;;;;;0.10;0.10;;;7.70;99.90;;;;;;5048222;28;20634;-69
2021/12/15 01:51:54;;;;;;;0.10;0.10;;;7.70;99.90;;;;;;5064503;28;21310;-68
2021/12/15 01:54:23;;;;;;;0.10;0.10;;;7.80;99.90;;;;;;5052279;28;20652;-68
2021/12/15 01:56:51;;;;;;;0.00;0.00;;;7.80;99.90;;;;;;5047922;28;20646;-69
2021/12/15 01:59:20;;;;;;;0.00;0.00;;;7.80;99.90;;;;;;5071602;28;20625;-68
2021/12/15 02:01:48;;;;;;;0.10;0.10;;;7.70;99.90;;;;;;5050139;28;20668;-69
2021/12/15 02:04:18;;;;;;;0.10;0.10;;;7.90;99.90;;;;;;5051117;28;20698;-69
2021/12/15 02:06:47;;;;;;;0.10;0.10;;;7.70;99.90;;;;;;5051649;28;20648;-68
2021/12/15 02:09:23;;;;;;;0.10;0.10;;;7.80;99.90;;;;;;5056915;28;20998;-68
2021/12/15 02:11:50;;;;;;;0.10;0.10;;;7.80;99.90;;;;;;5052818;28;20645;-69
2021/12/15 02:14:17;;;;;;;0.10;0.10;;;7.80;99.90;;;;;;5052996;28;20652;-69
2021/12/15 02:16:45;;;;;;;0.00;0.00;;;;;;;;;;5050178;28;20608;-69
2021/12/15 02:19:14;;;;;;;0.10;0.10;;;7.80;99.90;;;;;;5051502;28;20631;-68
2021/12/15 02:21:42;;;;;;;0.00;0.00;;;7.80;99.90;;;;;;5052791;28;20699;-69
2021/12/15 02:24:09;;;;;;;0.10;0.10;;;7.80;99.90;;;;;;5051511;28;20620;-69
2021/12/15 02:26:44;;;;;;;0.03;0.03;;;7.70;99.90;;;;;;5051817;28;20656;-68
2021/12/15 02:29:17;;;;;;;0.10;0.10;;;7.80;99.90;;;;;;5049744;28;20648;-68
2021/12/15 02:31:56;;;;;;;0.10;0.10;;;7.80;99.90;;;;;;5049853;28;20645;-68
2021/12/15 02:37:18;;;;;;;0.10;0.10;;;7.90;99.90;;;;;;5018645;28;20617;-68
2021/12/15 02:39:48;;;;;;;0.10;0.10;;;7.90;99.90;;;;;;5034846;28;20676;-69
2021/12/15 02:42:16;;;;;;;0.00;0.00;;;7.90;99.90;;;;;;5033968;28;20665;-68
2021/12/15 02:44:45;;;;;;;0.10;0.10;;;7.90;99.90;;;;;;5047629;28;20633;-69
2021/12/15 02:47:13;;;;;;;0.10;0.10;;;7.90;99.90;;;;;;5049479;28;20606;-69
2021/12/15 02:49:41;;;;;;;0.10;0.10;;;7.70;99.90;;;;;;5046095;28;20663;-68
2021/12/15 02:52:10;;;;;;;0.10;0.10;;;7.90;99.90;;;;;;5051785;28;20666;-69
2021/12/15 02:54:38;;;;;;;0.10;0.10;;;7.90;99.90;;;;;;5052909;28;20807;-68
2021/12/15 02:57:11;;;;;;;0.00;0.00;;;7.90;99.90;;;;;;5049774;28;20648;-69
2021/12/15 02:59:51;;;;;;;0.10;0.10;;;8.00;99.90;;;;;;5053573;28;20625;-69
2021/12/15 03:02:42;;;;;;;0.10;0.10;;;8.00;99.90;;;;;;5051360;28;20641;-68
2021/12/15 03:05:14;;;;;;;0.10;0.10;;;8.00;99.90;;;;;;5048616;28;21032;-69
2021/12/15 03:07:49;;;;;;;0.10;0.10;;;8.00;99.90;;;;;;5051788;28;20713;-69
2021/12/15 03:15:39;;;;;;;0.10;0.10;;;7.90;99.90;;;;;;5049458;28;20605;-68
2021/12/15 03:18:09;;;;;;;0.10;0.10;;;7.90;99.90;;;;;;5050151;28;20718;-68
2021/12/15 03:20:41;;;;;;;0.00;0.00;;;7.90;99.90;;;;;;5049449;28;20618;-68
2021/12/15 03:23:12;;;;;;;0.10;0.10;;;7.90;99.90;;;;;;5032681;28;20744;-69
2021/12/15 03:25:40;;;;;;;0.00;0.00;;;8.00;99.90;;;;;;5048434;28;20728;-67
2021/12/15 03:33:56;;;;;;;0.10;0.10;;;8.00;99.90;;;;;;5049974;28;20689;-69
2021/12/15 03:36:37;;;;;;;0.10;0.10;;;8.00;99.90;;;;;;5049622;28;20630;-69
2021/12/15 03:39:09;;;;;;;0.10;0.10;;;8.00;99.90;;;;;;5036126;28;20679;-69
2021/12/15 03:41:36;;;;;;;0.10;0.10;;;8.00;99.90;;;;;;5051417;28;20716;-69
2021/12/15 03:44:05;;;;;;;0.10;0.10;;;8.00;99.90;;;;;;5048393;28;20620;-69
2021/12/15 03:46:33;;;;;;;0.10;0.10;;;8.00;99.90;;;;;;5051933;28;20672;-69
2021/12/15 03:48:59;;;;;;;0.00;0.00;;;8.00;99.90;;;;;;5049220;28;20621;-69
2021/12/15 03:51:26;;;;;;;0.10;0.10;;;8.00;99.90;;;;;;5051100;28;20710;-69
2021/12/15 03:53:54;;;;;;;0.10;0.10;;;8.00;99.90;;;;;;5051330;28;21521;-68
2021/12/15 03:56:22;;;;;;;0.10;0.10;;;8.10;99.90;;;;;;5046066;28;20622;-69
2021/12/15 03:58:49;;;;;;;0.10;0.10;;;8.10;99.90;;;;;;5038082;28;20629;-68
2021/12/15 04:01:22;;;;;;;0.10;0.10;;;8.10;99.90;;;;;;5050120;28;20628;-68
2021/12/15 04:03:52;;;;;;;0.10;0.10;;;8.10;99.90;;;;;;5049333;28;20636;-69
2021/12/15 04:06:23;;;;;;;0.10;0.10;;;8.10;99.90;;;;;;5055507;28;20661;-69
2021/12/15 04:08:50;;;;;;;0.10;0.10;;;8.10;99.90;;;;;;5046031;28;20625;-69
2021/12/15 04:11:19;;;;;;;0.10;0.10;;;8.10;99.90;;;;;;5049501;28;20740;-68
2021/12/15 04:13:48;;;;;;;0.10;0.10;;;8.10;99.90;;;;;;5043899;28;20653;-69
2021/12/15 04:16:38;;;;;;;0.10;0.10;;;8.10;99.90;;;;;;5048793;28;21246;-69
2021/12/15 04:19:06;;;;;;;0.10;0.10;;;8.10;99.90;;;;;;5049286;28;20620;-69
2021/12/15 04:21:33;;;;;;;0.10;0.10;;;8.10;99.90;;;;;;5048332;28;20633;-68
2021/12/15 04:24:00;;;;;;;0.10;0.10;;;8.00;99.90;;;;;;5049890;28;20635;-68
2021/12/15 04:26:28;;;;;;;0.10;0.10;;;8.00;99.90;;;;;;5045316;28;20621;-68
2021/12/15 04:28:56;;;;;;;0.00;0.00;;;7.90;99.90;;;;;;5050258;28;20617;-69
2021/12/15 04:31:27;;;;;;;0.10;0.10;;;8.00;99.90;;;;;;5044936;28;20661;-69
2021/12/15 04:33:59;;;;;;;0.10;0.10;;;8.00;99.90;;;;;;5046474;28;20657;-69
2021/12/15 04:36:29;;;;;;;0.00;0.00;;;8.00;99.90;;;;;;5047570;28;20632;-68
2021/12/15 04:38:58;;;;;;;0.10;0.10;;;7.90;99.90;;;;;;5047672;28;20613;-68
2021/12/15 04:41:26;;;;;;;0.00;0.00;;;8.00;99.90;;;;;;5049372;28;20716;-68
2021/12/15 04:43:57;;;;;;;0.10;0.10;;;8.00;99.90;;;;;;5045682;28;20645;-67
2021/12/15 04:46:28;;;;;;;0.10;0.10;;;8.00;99.90;;;;;;5053408;28;20671;-68
2021/12/15 04:48:56;;;;;;;0.00;0.00;;;8.00;99.90;;;;;;5046321;28;20667;-68
2021/12/15 04:51:25;;;;;;;0.10;0.10;;;8.00;99.90;;;;;;5052348;28;20659;-69
2021/12/15 04:53:53;;;;;;;0.10;0.10;;;8.00;99.90;;;;;;5051218;28;20684;-68
2021/12/15 04:56:21;;;;;;;0.10;0.10;;;8.00;99.90;;;;;;5053411;28;20632;-69
2021/12/15 04:58:49;;;;;;;0.10;0.10;;;8.00;99.90;;;;;;5047755;28;20617;-69
2021/12/15 05:01:17;;;;;;;0.00;0.00;;;7.90;99.90;;;;;;5046961;28;20628;-69
2021/12/15 05:03:46;;;;;;;0.10;0.10;;;8.00;99.90;;;;;;5047928;28;20625;-69
2021/12/15 05:06:14;;;;;;;0.10;0.10;;;8.00;99.90;;;;;;5048928;28;20661;-68
2021/12/15 05:08:42;;;;;;;0.00;0.00;;;8.00;99.90;;;;;;5045677;28;20686;-70
2021/12/15 05:11:10;;;;;;;0.10;0.10;;;8.00;99.90;;;;;;5047052;28;20676;-70
2021/12/15 05:13:38;;;;;;;0.00;0.00;;;8.00;99.90;;;;;;5052964;28;20692;-70
2021/12/15 05:16:07;;;;;;;0.10;0.10;;;7.90;99.90;;;;;;5072792;28;20636;-69
2021/12/15 05:18:34;;;;;;;0.00;0.00;;;8.00;99.90;;;;;;5050073;28;20690;-70
2021/12/15 05:21:05;;;;;;;0.10;0.10;;;8.00;99.90;;;;;;5050827;28;20660;-69
2021/12/15 05:23:32;;;;;;;0.10;0.10;;;7.90;99.90;;;;;;5057655;28;20625;-69
2021/12/15 05:26:01;;;;;;;0.00;0.00;;;7.90;99.90;;;;;;5054540;28;20608;-68
2021/12/15 05:28:28;;;;;;;0.10;0.10;;;8.10;99.90;;;;;;5048427;28;20634;-69
2021/12/15 05:30:57;;;;;;;0.10;0.10;;;8.10;99.90;;;;;;5047791;28;20660;-69
2021/12/15 05:33:24;;;;;;;0.00;0.00;;;8.10;99.90;;;;;;5052205;28;20662;-72
2021/12/15 05:35:51;;;;;;;0.10;0.10;;;;;;;;;;5049384;28;20621;-69
2021/12/15 05:38:21;;;;;;;0.00;0.00;;;8.10;99.90;;;;;;5066537;28;20631;-69
2021/12/15 05:40:48;;;;;;;0.10;0.10;;;8.10;99.90;;;;;;5048916;28;20605;-69
2021/12/15 05:43:15;;;;;;;0.10;0.10;;;8.10;99.90;;;;;;5055656;28;20764;-68
2021/12/15 05:45:43;;;;;;;0.10;0.10;;;8.10;99.90;;;;;;5051733;28;20761;-69
2021/12/15 05:48:14;;;;;;;0.10;0.10;;;8.10;99.90;;;;;;5051440;28;20660;-69
2021/12/15 05:50:43;;;;;;;0.10;0.10;;;8.10;99.90;;;;;;5051925;28;20633;-70
2021/12/15 05:53:10;;;;;;;0.10;0.10;;;8.10;99.90;;;;;;5052287;28;20640;-68
2021/12/15 05:55:42;;;;;;;0.10;0.10;;;8.10;99.90;;;;;;5049452;28;20676;-68
2021/12/15 05:58:09;;;;;;;0.10;0.10;;;8.10;99.90;;;;;;5059125;28;20658;-68
2021/12/15 06:00:40;;;;;;;0.10;0.10;;;8.10;99.90;;;;;;5036213;28;20716;-68
2021/12/15 06:03:08;;;;;;;0.10;0.10;;;8.10;99.90;;;;;;5051143;28;20660;-68
2021/12/15 06:05:36;;;;;;;0.10;0.10;;;8.10;99.90;;;;;;5047676;28;20677;-69
2021/12/15 06:08:04;;;;;;;0.00;0.00;;;8.10;99.90;;;;;;5048810;28;20624;-68
2021/12/15 06:10:33;;;;;;;0.10;0.10;;;8.20;99.90;;;;;;5051003;28;20610;-69
2021/12/15 06:13:02;;;;;;;0.10;0.10;;;8.10;99.90;;;;;;5048033;28;20665;-67
2021/12/15 06:15:31;;;;;;;0.10;0.10;;;8.20;99.90;;;;;;5048845;28;20668;-69
2021/12/15 06:18:02;;;;;;;0.10;0.10;;;8.20;99.90;;;;;;5036313;28;20636;-69
2021/12/15 06:20:30;;;;;;;0.10;0.10;;;8.00;99.90;;;;;;5051785;28;20714;-69
2021/12/15 06:22:59;;;;;;;0.10;0.10;;;8.20;99.90;;;;;;5049159;28;20669;-68
2021/12/15 06:25:28;;;;;;;0.00;0.00;;;8.20;99.90;;;;;;5051729;28;20716;-71
2021/12/15 06:27:54;;;;;;;0.07;0.07;;;8.20;99.90;;;;;;5051409;28;20628;-69
2021/12/15 06:30:23;;;;;;;0.10;0.10;;;8.10;99.90;;;;;;5051572;28;20628;-68
2021/12/15 06:32:50;;;;;;;0.10;0.10;;;8.10;99.90;;;;;;5047335;28;20721;-69
2021/12/15 06:35:17;;;;;;;0.10;0.10;;;8.00;99.90;;;;;;5052527;28;20683;-69
2021/12/15 06:37:44;;;;;;;0.10;0.10;;;;;;;;;;5036118;28;20616;-69
2021/12/15 06:40:12;;;;;;;0.10;0.10;;;8.20;99.90;;;;;;5052343;28;20628;-69
2021/12/15 06:42:42;;;;;;;0.03;0.03;;;8.20;99.90;;;;;;5050853;28;20647;-69
2021/12/15 06:45:14;;;;;;;0.07;0.07;;;8.10;99.90;;;;;;5050186;28;20669;-68
2021/12/15 06:58:40;;;;;;;0.10;0.10;;;8.20;99.90;;;;;;5052226;28;20649;-70
2021/12/15 07:01:09;;;;;;;0.10;0.10;;;8.20;99.90;;;;;;5050889;28;21104;-68
2021/12/15 07:03:37;;;;;;;0.10;0.10;;;8.30;99.90;;;;;;5046874;28;20638;-68
2021/12/15 07:06:04;;;;;;;0.10;0.10;;;8.20;99.90;;;;;;5051111;28;20609;-68
2021/12/15 07:08:32;;;;;;;0.00;0.00;;;8.20;99.90;;;;;;5050757;28;20630;-67
2021/12/15 07:11:01;;;;;;;0.10;0.10;;;8.20;99.90;;;;;;5050155;28;20601;-69
2021/12/15 07:13:30;;;;;;;0.00;0.00;;;8.20;99.90;;;;;;5049725;28;20632;-68
2021/12/15 07:16:01;;;;;;;0.00;0.00;;;8.40;99.90;;;;;;5050528;28;20649;-69
2021/12/15 07:18:40;;;;;;;0.10;0.10;;;8.20;99.90;;;;;;5050105;28;20688;-69
2021/12/15 07:21:15;;;;;;;0.00;0.00;;;8.20;99.90;;;;;;5050423;28;20645;-69
2021/12/15 07:23:42;;;;;;;0.10;0.10;;;8.20;99.90;;;;;;5048279;28;20732;-68
2021/12/15 07:26:09;;;;;;;0.10;0.10;;;8.40;99.90;;;;;;5049809;28;20612;-70
2021/12/15 07:28:36;;;;;;;0.10;0.10;;;8.20;99.90;;;;;;5051922;28;20637;-69
2021/12/15 07:31:04;;;;;;;0.10;0.10;;;8.10;99.90;;;;;;5051649;28;20723;-69
2021/12/15 07:33:31;;;;;;;0.10;0.10;;;8.20;99.90;;;;;;5055598;28;20630;-68
2021/12/15 07:35:59;;;;;;;0.10;0.10;;;8.20;99.90;;;;;;5050114;28;20654;-68
2021/12/15 07:38:27;;;;;;;0.10;0.10;;;8.30;99.90;;;;;;5049842;28;20622;-68
2021/12/15 07:40:54;;;;;;;0.10;0.10;;;8.40;99.90;;;;;;5049055;28;20703;-67
2021/12/15 07:43:25;;;;;;;0.10;0.10;;;;;;;;;;5050211;28;20665;-69
2021/12/15 07:45:56;;;;;;;0.10;0.10;;;8.40;99.90;;;;;;5048039;28;20636;-69
2021/12/15 07:48:25;;;;;;;0.10;0.10;;;8.40;99.90;;;;;;5050672;28;20659;-68
2021/12/15 07:50:55;;;;;;;0.10;0.10;;;8.50;99.90;;;;;;5050099;28;21278;-68
2021/12/15 07:53:22;;;;;;;0.10;0.10;;;8.50;99.90;;;;;;5052418;28;20664;-68
2021/12/15 07:55:51;;;;;;;0.10;0.10;;;8.50;99.90;;;;;;5044484;28;20680;-69
2021/12/15 07:58:19;;;;;;;0.10;0.10;;;8.50;99.90;;;;;;5049187;28;20636;-68
2021/12/15 08:00:49;;;;;;;0.10;0.10;;;8.50;99.90;;;;;;5032879;28;20628;-69
2021/12/15 08:03:17;;;;;;;0.10;0.10;;;8.60;99.90;;;;;;5052997;28;20710;-69
2021/12/15 08:05:46;;;;;;;0.10;0.10;;;8.60;99.90;;;;;;5047173;28;20656;-68
2021/12/15 08:08:13;;;;;;;0.00;0.00;;;8.60;99.90;;;;;;5054795;28;20613;-69
2021/12/15 08:10:41;;;;;;;0.10;0.10;;;8.60;99.90;;;;;;5048631;28;20648;-68
2021/12/15 08:13:10;;;;;;;0.10;0.10;;;8.70;99.90;;;;;;5047343;28;20722;-69
2021/12/15 08:15:39;;;;;;;0.10;0.10;;;8.70;99.90;;;;;;5050397;28;20682;-69
2021/12/15 08:18:06;;;;;;;0.10;0.10;;;8.70;99.90;;;;;;5050512;28;20606;-69
2021/12/15 08:20:34;;;;;;;0.10;0.10;;;8.70;99.90;;;;;;5049328;28;20649;-68
2021/12/15 08:23:02;;;;;;;0.10;0.10;;;8.70;99.90;;;;;;5049575;28;20731;-69
2021/12/15 08:25:31;;;;;;;0.10;0.10;;;8.70;99.90;;;;;;5052061;28;21212;-69
2021/12/15 08:28:00;;;;;;;0.10;0.10;;;8.70;99.90;;;;;;5049557;28;20724;-68
2021/12/15 08:30:31;;;;;;;0.10;0.10;;;8.80;99.90;;;;;;5051679;28;20636;-69
2021/12/15 08:33:03;;;;;;;0.10;0.10;;;9.70;99.90;;;;;;5049615;28;20722;-68
2021/12/15 08:35:33;;;;;;;0.10;0.10;;;8.80;99.90;;;;;;5046303;28;20654;-69
2021/12/15 08:38:00;;;;;;;0.10;0.10;;;8.90;99.90;;;;;;5047127;28;20626;-69
2021/12/15 08:40:28;;;;;;;0.00;0.00;;;8.90;99.90;;;;;;5049238;28;20715;-68
2021/12/15 08:42:55;;;;;;;0.00;0.00;;;9.00;99.90;;;;;;5048708;28;20659;-69
2021/12/15 08:45:23;;;;;;;0.10;0.10;;;9.00;99.90;;;;;;5050038;28;20662;-69
2021/12/15 08:47:52;;;;;;;0.00;0.00;;;9.00;99.90;;;;;;5049559;28;20621;-69
2021/12/15 08:50:23;;;;;;;0.10;0.10;;;9.00;99.90;;;;;;5044978;28;20679;-68
2021/12/15 08:52:50;;;;;;;0.00;0.00;;;9.00;99.90;;;;;;5046732;28;20670;-69
2021/12/15 08:55:17;;;;;;;0.10;0.10;;;9.00;99.90;;;;;;5050578;28;22165;-69
2021/12/15 08:57:48;;;;;;;0.10;0.10;;;9.00;99.90;;;;;;5048666;28;20650;-69
2021/12/15 09:00:17;;;;;;;0.10;0.10;;;9.10;99.90;;;;;;5048102;28;20629;-68
2021/12/15 09:02:44;;;;;;;0.10;0.10;;;9.00;99.90;;;;;;5050900;28;20644;-69
2021/12/15 09:05:12;;;;;;;0.10;0.10;;;9.10;99.90;;;;;;5048597;28;20621;-68
2021/12/15 09:07:43;;;;;;;0.10;0.10;;;9.10;99.90;;;;;;5048416;28;20618;-69
2021/12/15 09:10:11;;;;;;;0.10;0.10;;;9.10;99.90;;;;;;5046731;28;20679;-69
2021/12/15 09:12:38;;;;;;;0.10;0.10;;;9.10;99.90;;;;;;5049269;28;20661;-68
2021/12/15 09:15:07;;;;;;;0.00;0.00;;;9.20;99.90;;;;;;5063598;28;20650;-68
2021/12/15 09:17:34;;;;;;;0.10;0.10;;;9.10;99.90;;;;;;5050824;28;20670;-68
2021/12/15 09:20:06;;;;;;;0.10;0.10;;;9.20;99.90;;;;;;5049045;28;20687;-69
2021/12/15 09:22:35;;;;;;;0.10;0.10;;;9.20;99.90;;;;;;5053906;28;20736;-68
2021/12/15 09:25:02;;;;;;;0.00;0.00;;;9.30;99.90;;;;;;5047637;28;20718;-69
2021/12/15 09:27:29;;;;;;;0.00;0.00;;;9.30;99.90;;;;;;5049826;28;20627;-69
2021/12/15 09:29:55;;;;;;;0.10;0.10;;;9.40;99.90;;;;;;5047742;28;20753;-69
2021/12/15 09:32:23;;;;;;;0.10;0.10;;;9.40;99.90;;;;;;5053164;28;20644;-68
2021/12/15 09:34:50;;;;;;;0.00;0.00;;;9.50;99.90;;;;;;5042536;28;20681;-69
2021/12/15 09:37:19;;;;;;;0.00;0.00;;;9.50;99.90;;;;;;5051050;28;20612;-68
2021/12/15 09:39:47;;;;;;;0.10;0.10;;;9.50;99.90;;;;;;5033137;28;20737;-69
2021/12/15 09:42:19;;;;;;;0.10;0.10;;;9.60;99.90;;;;;;5046630;28;21199;-69
2021/12/15 09:44:47;;;;;;;0.00;0.00;;;9.60;99.90;;;;;;5047613;28;20616;-69
2021/12/15 09:47:24;;;;;;;0.00;0.00;;;9.60;99.90;;;;;;5045431;28;21220;-69
2021/12/15 10:03:49;;;;;;;0.00;0.00;;;9.80;99.90;;;;;;5053784;28;20636;-67
2021/12/15 10:06:28;;;;;;;0.00;0.00;;;9.90;99.90;;;;;;5052576;28;21222;-68
2021/12/15 10:17:38;;;;;;;0.00;0.00;;;10.10;99.90;;;;;;5065896;28;20619;-69
2021/12/15 10:20:08;;;;;;;0.10;0.10;;;10.00;99.90;;;;;;5056474;28;20633;-69
2021/12/15 10:22:39;;;;;;;0.10;0.10;;;;;;;;;;5050210;28;20655;-69
2021/12/15 10:25:11;;;;;;;0.10;0.10;;;10.20;99.90;;;;;;5052599;28;20236;-68
2021/12/15 10:27:44;;;;;;;0.00;0.00;;;10.20;99.90;;;;;;5051527;28;20219;-68
2021/12/15 10:30:25;;;;;;;0.10;0.10;;;10.20;99.90;;;;;;5050743;28;21052;-69
2021/12/15 10:32:57;;;;;;;0.00;0.00;;;10.30;99.90;;;;;;5050705;28;20229;-68
2021/12/15 10:35:26;;;;;;;0.00;0.00;;;10.30;99.90;;;;;;5048617;28;20226;-69
2021/12/15 10:38:27;;;;;;;0.10;0.10;;;10.30;99.90;;;;;;5049376;28;20683;-68
2021/12/15 10:41:01;;;;;;;0.10;0.10;;;10.40;99.90;;;;;;5007064;28;20247;-68
2021/12/15 10:43:34;;;;;;;0.10;0.10;;;10.40;99.90;;;;;;5042027;28;20207;-68
2021/12/15 10:46:05;;;;;;;0.00;0.00;;;10.50;99.90;;;;;;5052728;28;20194;-68
2021/12/15 10:48:36;;;;;;;0.00;0.00;;;10.50;99.90;;;;;;5054064;28;20210;-69
2021/12/15 10:51:18;;;;;;;0.10;0.10;;;10.50;99.90;;;;;;5050748;28;20206;-68
2021/12/15 10:53:45;;;;;;;0.00;0.00;;;10.50;99.90;;;;;;5048431;28;20218;-69
2021/12/15 10:56:13;;;;;;;0.10;0.10;;;10.50;99.90;;;;;;5050069;28;20211;-68
2021/12/15 10:58:44;;;;;;;0.10;0.10;;;10.50;99.90;;;;;;5050603;28;20210;-68
2021/12/15 11:01:38;;;;;;;0.10;0.10;;;10.40;99.90;;;;;;5056605;28;20210;-69
2021/12/15 11:04:29;;;;;;;0.10;0.10;;;10.40;99.90;;;;;;5034068;28;20688;-69
2021/12/15 11:07:10;;;;;;;0.00;0.00;;;10.40;99.90;;;;;;5038110;28;20577;-68
2021/12/15 11:09:39;;;;;;;0.10;0.10;;;10.40;99.90;;;;;;5051852;28;20252;-69
2021/12/15 11:12:09;;;;;;;0.10;0.10;;;10.40;99.90;;;;;;5050962;28;20218;-69
2021/12/15 11:14:40;;;;;;;0.00;0.00;;;10.30;99.90;;;;;;5048537;28;20204;-68
2021/12/15 11:17:13;;;;;;;0.10;0.10;;;10.30;99.90;;;;;;5046674;28;20670;-68
2021/12/15 11:19:53;;;;;;;0.10;0.10;;;10.30;99.90;;;;;;5049874;28;20203;-69
2021/12/15 11:22:41;;;;;;;0.10;0.10;;;10.30;99.90;;;;;;5068885;28;20658;-68
2021/12/15 11:25:13;;;;;;;0.00;0.00;;;10.30;99.90;;;;;;5032967;28;20261;-68
2021/12/15 11:27:40;;;;;;;0.10;0.10;;;10.30;99.90;;;;;;5053109;28;20206;-68
2021/12/15 11:30:13;;;;;;;0.10;0.10;;;10.30;99.90;;;;;;5033150;28;20195;-69
2021/12/15 11:32:46;;;;;;;0.10;0.10;;;10.20;99.90;;;;;;5050175;28;20257;-67
2021/12/15 11:35:17;;;;;;;0.10;0.10;;;10.30;99.90;;;;;;5050485;28;20642;-68
2021/12/15 11:37:52;;;;;;;0.03;0.03;;;10.30;99.90;;;;;;5050544;28;20203;-68
2021/12/15 11:40:27;;;;;;;0.10;0.10;;;10.30;99.90;;;;;;5048300;28;20203;-68
2021/12/15 11:42:54;;;;;;;0.10;0.10;;;10.30;99.90;;;;;;5052515;28;20257;-68
2021/12/15 11:45:23;;;;;;;0.10;0.10;;;;;;;;;;5051341;28;20630;-67
2021/12/15 11:47:51;;;;;;;0.10;0.10;;;10.30;99.90;;;;;;5052236;28;20215;-69
2021/12/15 11:50:22;;;;;;;0.10;0.10;;;10.20;99.90;;;;;;5051604;28;20222;-68
2021/12/15 11:52:51;;;;;;;0.10;0.10;;;10.30;99.90;;;;;;5052564;28;20246;-69
2021/12/15 11:55:26;;;;;;;0.10;0.10;;;10.30;99.90;;;;;;5050691;28;20202;-69
2021/12/15 11:57:53;;;;;;;0.10;0.10;;;10.30;99.90;;;;;;5054096;28;20607;-71
2021/12/15 12:00:24;;;;;;;0.00;0.00;;;;;;;;;;5052836;28;20672;-69
2021/12/15 12:02:54;;;;;;;0.00;0.00;;;10.30;99.90;;;;;;5052163;28;20219;-69
2021/12/15 12:05:25;;;;;;;0.10;0.10;;;10.30;99.90;;;;;;5048492;28;20282;-68
2021/12/15 12:07:57;;;;;;;0.10;0.10;;;10.30;99.90;;;;;;5048116;28;20265;-69
2021/12/15 12:10:31;;;;;;;0.10;0.10;;;10.30;99.90;;;;;;5055513;28;20203;-68
2021/12/15 12:13:05;;;;;;;0.10;0.10;;;10.30;99.90;;;;;;5052009;28;20218;-69
2021/12/15 12:15:36;;;;;;;0.03;0.03;;;10.40;99.90;;;;;;5048928;28;20199;-69
2021/12/15 12:18:07;;;;;;;0.10;0.10;;;10.40;99.90;;;;;;5047470;28;20292;-69
2021/12/15 12:20:38;;;;;;;0.00;0.00;;;10.40;99.90;;;;;;5051227;28;20221;-69
2021/12/15 12:23:10;;;;;;;0.00;0.00;;;10.40;99.90;;;;;;5048706;28;20220;-68
2021/12/15 12:25:46;;;;;;;0.10;0.10;;;10.50;99.90;;;;;;5060837;28;20202;-68
2021/12/15 12:28:15;;;;;;;0.00;0.00;;;10.50;99.90;;;;;;5053173;28;20198;-69
2021/12/15 12:30:48;;;;;;;0.10;0.10;;;10.50;99.90;;;;;;5049436;28;20231;-68
2021/12/15 12:33:16;;;;;;;0.00;0.00;;;10.60;99.90;;;;;;5046740;28;20241;-66
2021/12/15 12:35:46;;;;;;;0.10;0.10;;;10.50;99.90;;;;;;5048549;28;20226;-69
2021/12/15 12:38:16;;;;;;;0.07;0.07;;;10.50;99.90;;;;;;5052329;28;20203;-69
2021/12/15 12:40:52;;;;;;;0.00;0.00;;;10.50;99.90;;;;;;5049992;28;20210;-68
2021/12/15 12:43:27;;;;;;;0.10;0.10;;;10.50;99.90;;;;;;5046985;28;20222;-69
2021/12/15 12:46:04;;;;;;;0.07;0.07;;;10.50;99.90;;;;;;5066593;28;20207;-67
2021/12/15 12:59:41;;;;;;;0.10;0.10;;;10.50;99.90;;;;;;5058712;28;20195;-69
2021/12/15 13:02:38;;;;;;;0.10;0.10;;;10.50;99.90;;;;;;5047490;28;20312;-69
2021/12/15 13:05:06;;;;;;;0.10;0.10;;;10.50;99.90;;;;;;5052965;28;20203;-68
2021/12/15 13:07:46;;;;;;;0.10;0.10;;;10.50;99.90;;;;;;5049769;28;20735;-70
2021/12/15 13:10:14;;;;;;;0.00;0.00;;;10.50;99.90;;;;;;5054768;28;20266;-70
2021/12/15 13:12:47;;;;;;;0.10;0.10;;;10.50;99.90;;;;;;5048609;28;20221;-69
2021/12/15 13:15:18;;;;;;;0.10;0.10;;;10.50;99.90;;;;;;5052257;28;20200;-68
2021/12/15 13:17:59;;;;;;;0.10;0.10;;;10.50;99.90;;;;;;5035587;28;20245;-68
2021/12/15 13:20:29;;;;;;;0.00;0.00;;;10.50;99.90;;;;;;5049266;28;20234;-70
2021/12/15 13:23:09;;;;;;;0.00;0.00;;;10.40;99.90;;;;;;5048510;28;20258;-70
2021/12/15 13:28:44;;;;;;;0.10;0.10;;;10.50;99.90;;;;;;5064657;28;20289;-71
2021/12/15 13:31:16;;;;;;;0.10;0.10;;;10.40;99.90;;;;;;5043952;28;20286;-70
2021/12/15 13:33:49;;;;;;;0.10;0.10;;;10.40;99.90;;;;;;5047516;28;20208;-70
2021/12/15 13:36:20;;;;;;;0.00;0.00;;;10.40;99.90;;;;;;5053519;28;20218;-70
2021/12/15 13:38:52;;;;;;;0.10;0.10;;;10.40;99.90;;;;;;5058498;28;20195;-69
2021/12/15 13:41:37;;;;;;;0.10;0.10;;;10.40;99.90;;;;;;5056906;28;20195;-71
2021/12/15 13:44:20;;;;;;;0.10;0.10;;;10.40;99.90;;;;;;5056006;28;20199;-69
2021/12/15 13:46:51;;;;;;;0.10;0.10;;;10.40;99.90;;;;;;5055519;28;20200;-68
2021/12/15 13:49:29;;;;;;;0.00;0.00;;;10.40;99.90;;;;;;5056307;28;20253;-68
2021/12/15 13:52:05;;;;;;;0.10;0.10;;;10.50;99.90;;;;;;5067617;28;20224;-68
2021/12/15 13:55:06;;;;;;;0.10;0.10;;;;;;;;;;5054079;28;20228;-69
2021/12/15 13:57:37;;;;;;;0.10;0.10;;;10.40;99.90;;;;;;5056764;28;20222;-68
2021/12/15 14:00:20;;;;;;;0.10;0.10;;;10.50;99.90;;;;;;5053851;28;20195;-70
2021/12/15 14:03:07;;;;;;;0.07;0.07;;;10.40;99.90;;;;;;5050556;28;20609;-69
2021/12/15 14:05:40;;;;;;;0.10;0.10;;;10.40;99.90;;;;;;5050430;28;20203;-70
2021/12/15 14:08:08;;;;;;;0.10;0.10;;;10.40;99.90;;;;;;5047903;28;20276;-68
2021/12/15 14:10:59;;;;;;;0.10;0.10;;;10.40;99.90;;;;;;5048689;28;20207;-68
2021/12/15 14:13:57;;;;;;;0.10;0.10;;;10.40;99.90;;;;;;5055564;28;20223;-68
2021/12/15 14:16:31;;;;;;;0.07;0.07;;;10.40;99.90;;;;;;5052536;28;20230;-69
2021/12/15 14:19:00;;;;;;;0.00;0.00;;;10.40;99.90;;;;;;5053983;28;20192;-69
2021/12/15 14:21:29;;;;;;;0.00;0.00;;;10.40;99.90;;;;;;5049501;28;20327;-68
2021/12/15 14:23:57;;;;;;;0.10;0.10;;;10.30;99.90;;;;;;5052980;28;20210;-70
2021/12/15 14:26:27;;;;;;;0.00;0.00;;;10.30;99.90;;;;;;5049697;28;20207;-69
2021/12/15 14:28:56;;;;;;;0.00;0.00;;;10.30;99.90;;;;;;5036348;28;20729;-67